createdAt,value
2022-10-17T00:00:13.452Z,98487.91
2022-10-17T00:02:40.063Z,98487.13
2022-10-17T00:05:06.690Z,98492.53
2022-10-17T00:07:33.303Z,98494.63
2022-10-17T00:09:59.888Z,98490.03
2022-10-17T00:12:26.522Z,98488.31
2022-10-17T00:14:53.139Z,98491.06
2022-10-17T00:17:19.731Z,98489.88
2022-10-17T00:19:46.371Z,98493.13
2022-10-17T00:22:13.019Z,98489.59
2022-10-17T00:24:39.650Z,98492.69
2022-10-17T00:27:06.282Z,98488.31
2022-10-17T00:29:32.863Z,98492.22
2022-10-17T00:31:59.500Z,98496.31
2022-10-17T00:34:26.114Z,98494.31
2022-10-17T00:36:52.707Z,98501.63
2022-10-17T00:39:19.375Z,98491.78
2022-10-17T00:41:45.988Z,98492.97
2022-10-17T00:44:12.604Z,98482.53
2022-10-17T00:46:39.263Z,98492.03
2022-10-17T00:49:05.852Z,98486.75
2022-10-17T00:51:32.476Z,98486.31
2022-10-17T00:53:59.077Z,98487.72
2022-10-17T00:56:25.689Z,98488.41
2022-10-17T00:58:52.410Z,98490.84
2022-10-17T01:01:19.090Z,98479.34
2022-10-17T01:03:45.758Z,98483.03
2022-10-17T01:06:12.377Z,98479.72
2022-10-17T01:08:39.023Z,98476.06
2022-10-17T01:11:05.625Z,98476.78
2022-10-17T01:13:32.242Z,98474.34
2022-10-17T01:15:58.840Z,98476.16
2022-10-17T01:18:25.495Z,98476.09
2022-10-17T01:20:52.083Z,98467.41
2022-10-17T01:23:18.691Z,98472.59
2022-10-17T01:25:45.313Z,98477.34
2022-10-17T01:28:11.922Z,98475.16
2022-10-17T01:30:38.526Z,98480.66
2022-10-17T01:33:05.183Z,98476.97
2022-10-17T01:35:31.804Z,98477.22
2022-10-17T01:37:58.429Z,98476.44
2022-10-17T01:40:25.025Z,98475.19
2022-10-17T01:42:51.666Z,98482.38
2022-10-17T01:45:18.253Z,98479.41
2022-10-17T01:47:44.875Z,98478.09
2022-10-17T01:50:11.467Z,98476.00
2022-10-17T01:52:38.152Z,98476.19
2022-10-17T01:55:04.768Z,98481.72
2022-10-17T01:57:31.568Z,98476.69
2022-10-17T01:59:58.370Z,98485.13
2022-10-17T02:02:24.976Z,98484.41
2022-10-17T02:04:51.703Z,98490.25
2022-10-17T02:07:18.350Z,98487.00
2022-10-17T02:09:44.968Z,98486.69
2022-10-17T02:12:11.559Z,98479.84
2022-10-17T02:14:38.163Z,98480.72
2022-10-17T02:17:04.771Z,98484.31
2022-10-17T02:19:31.364Z,98489.78
2022-10-17T02:21:57.984Z,98490.41
2022-10-17T02:24:24.584Z,98481.59
2022-10-17T02:26:51.200Z,98489.22
2022-10-17T02:29:17.838Z,98485.38
2022-10-17T02:31:44.698Z,98483.47
2022-10-17T02:34:11.314Z,98488.59
2022-10-17T02:36:37.923Z,98485.59
2022-10-17T02:39:04.538Z,98481.47
2022-10-17T02:41:31.154Z,98495.22
2022-10-17T02:44:00.159Z,98491.53
2022-10-17T02:46:28.960Z,98489.97
2022-10-17T02:48:55.547Z,98498.75
2022-10-17T02:51:22.158Z,98495.28
2022-10-17T02:53:57.774Z,98503.41
2022-10-17T02:56:24.415Z,98504.41
2022-10-17T02:58:51.075Z,98504.78
2022-10-17T03:01:17.723Z,98505.50
2022-10-17T03:03:44.401Z,98504.69
2022-10-17T03:06:11.011Z,98499.53
2022-10-17T03:11:05.135Z,98501.56
2022-10-17T03:13:33.031Z,98504.22
2022-10-17T03:16:01.658Z,98508.81
2022-10-17T03:18:28.253Z,98509.25
2022-10-17T03:20:54.884Z,98515.00
2022-10-17T03:23:21.473Z,98507.13
2022-10-17T03:25:48.149Z,98512.28
2022-10-17T03:30:58.758Z,98514.31
2022-10-17T03:33:25.338Z,98516.50
2022-10-17T03:35:52.013Z,98520.78
2022-10-17T03:38:18.650Z,98521.78
2022-10-17T03:40:45.264Z,98526.25
2022-10-17T03:43:11.891Z,98526.81
2022-10-17T03:45:38.492Z,98520.31
2022-10-17T03:48:05.100Z,98525.25
2022-10-17T03:50:31.697Z,98523.88
2022-10-17T03:52:58.294Z,98521.97
2022-10-17T03:55:24.923Z,98526.34
2022-10-17T03:57:51.542Z,98528.16
2022-10-17T04:00:18.155Z,98525.91
2022-10-17T04:02:44.762Z,98528.78
2022-10-17T04:05:11.384Z,98533.19
2022-10-17T04:07:38.026Z,98533.28
2022-10-17T04:10:04.792Z,98530.69
2022-10-17T04:12:31.792Z,98533.63
2022-10-17T04:14:58.613Z,98537.81
2022-10-17T04:17:25.202Z,98532.50
2022-10-17T04:19:51.844Z,98538.63
2022-10-17T04:22:18.442Z,98548.50
2022-10-17T04:24:45.081Z,98540.28
2022-10-17T04:27:11.689Z,98546.81
2022-10-17T04:29:38.310Z,98543.38
2022-10-17T04:32:04.899Z,98544.41
2022-10-17T04:34:31.506Z,98545.59
2022-10-17T04:36:58.107Z,98543.28
2022-10-17T04:39:24.732Z,98552.03
2022-10-17T04:41:51.339Z,98555.97
2022-10-17T04:44:17.970Z,98549.09
2022-10-17T04:46:44.584Z,98553.59
2022-10-17T04:49:11.176Z,98555.59
2022-10-17T04:51:37.816Z,98548.84
2022-10-17T04:54:04.402Z,98556.59
2022-10-17T04:56:31.015Z,98556.78
2022-10-17T04:58:57.628Z,98555.00
2022-10-17T05:01:24.307Z,98551.16
2022-10-17T05:03:50.936Z,98552.13
2022-10-17T05:06:17.584Z,98555.97
2022-10-17T05:08:44.180Z,98564.47
2022-10-17T05:11:10.801Z,98561.47
2022-10-17T05:13:37.439Z,98557.88
2022-10-17T05:16:04.079Z,98563.66
2022-10-17T05:18:30.698Z,98571.84
2022-10-17T05:20:57.343Z,98567.03
2022-10-17T05:23:23.983Z,98574.97
2022-10-17T05:25:50.593Z,98568.91
2022-10-17T05:28:17.214Z,98569.00
2022-10-17T05:30:43.827Z,98573.69
2022-10-17T05:33:10.453Z,98579.63
2022-10-17T05:35:37.099Z,98569.41
2022-10-17T05:38:03.706Z,98567.63
2022-10-17T05:40:30.326Z,98574.28
2022-10-17T05:42:56.940Z,98576.69
2022-10-17T05:45:23.530Z,98580.28
2022-10-17T05:47:50.186Z,98583.81
2022-10-17T05:50:16.795Z,98591.00
2022-10-17T05:52:45.194Z,98583.91
2022-10-17T05:55:13.821Z,98592.09
2022-10-17T05:57:40.418Z,98602.00
2022-10-17T06:00:07.006Z,98596.31
2022-10-17T06:02:33.796Z,98605.03
2022-10-17T06:05:00.735Z,98602.84
2022-10-17T06:07:27.365Z,98611.34
2022-10-17T06:09:53.956Z,98608.72
2022-10-17T06:12:20.580Z,98612.44
2022-10-17T06:14:47.179Z,98614.47
2022-10-17T06:17:16.277Z,98613.72
2022-10-17T06:19:43.113Z,98617.03
2022-10-17T06:22:09.729Z,98624.06
2022-10-17T06:24:36.346Z,98629.88
2022-10-17T06:27:03.757Z,98630.25
2022-10-17T06:29:32.428Z,98629.06
2022-10-17T06:31:59.054Z,98632.00
2022-10-17T06:34:25.672Z,98637.00
2022-10-17T06:36:52.355Z,98644.41
2022-10-17T06:39:19.013Z,98640.09
2022-10-17T06:41:45.635Z,98648.31
2022-10-17T06:44:12.234Z,98651.50
2022-10-17T06:46:38.823Z,98650.75
2022-10-17T06:49:05.484Z,98656.00
2022-10-17T06:51:32.071Z,98653.69
2022-10-17T06:53:58.716Z,98650.53
2022-10-17T06:56:25.311Z,98656.16
2022-10-17T06:58:51.906Z,98659.16
2022-10-17T07:01:18.555Z,98659.09
2022-10-17T07:03:45.192Z,98655.69
2022-10-17T07:06:11.787Z,98668.16
2022-10-17T07:08:38.415Z,98666.59
2022-10-17T07:11:05.043Z,98672.03
2022-10-17T07:13:34.485Z,98671.94
2022-10-17T07:16:04.814Z,98673.59
2022-10-17T07:18:31.433Z,98672.28
2022-10-17T07:20:58.028Z,98682.34
2022-10-17T07:23:24.616Z,98680.34
2022-10-17T07:25:51.234Z,98683.38
2022-10-17T07:28:17.832Z,98679.28
2022-10-17T07:30:44.452Z,98684.59
2022-10-17T07:33:11.066Z,98682.59
2022-10-17T07:35:37.687Z,98686.06
2022-10-17T07:38:04.330Z,98682.75
2022-10-17T07:40:31.049Z,98682.81
2022-10-17T07:42:57.655Z,98678.75
2022-10-17T07:45:24.281Z,98677.34
2022-10-17T07:47:50.931Z,98678.56
2022-10-17T07:50:17.522Z,98676.78
2022-10-17T07:52:44.148Z,98679.03
2022-10-17T07:55:10.769Z,98676.38
2022-10-17T08:00:21.329Z,98679.84
2022-10-17T08:02:47.921Z,98683.09
2022-10-17T08:05:14.559Z,98681.84
2022-10-17T08:07:41.148Z,98674.03
2022-10-17T08:12:39.254Z,98683.59
2022-10-17T08:15:05.867Z,98684.78
2022-10-17T08:17:32.482Z,98689.44
2022-10-17T08:19:59.080Z,98688.16
2022-10-17T08:22:25.691Z,98687.69
2022-10-17T08:24:52.312Z,98689.72
2022-10-17T08:27:18.939Z,98686.25
2022-10-17T08:29:45.597Z,98693.13
2022-10-17T08:32:12.186Z,98692.44
2022-10-17T08:34:38.795Z,98685.13
2022-10-17T08:37:05.450Z,98684.53
2022-10-17T08:39:32.073Z,98682.44
2022-10-17T08:41:58.870Z,98694.84
2022-10-17T08:44:25.489Z,98684.84
2022-10-17T08:46:52.088Z,98687.41
2022-10-17T08:49:18.705Z,98681.91
2022-10-17T08:51:45.299Z,98688.03
2022-10-17T08:54:11.891Z,98680.59
2022-10-17T08:56:47.924Z,98684.00
2022-10-17T08:59:15.309Z,98679.72
2022-10-17T09:01:41.935Z,98674.50
2022-10-17T09:04:08.527Z,98684.19
2022-10-17T09:06:35.245Z,98680.03
2022-10-17T09:09:01.927Z,98687.31
2022-10-17T09:11:28.520Z,98680.31
2022-10-17T09:13:55.155Z,98678.06
2022-10-17T09:16:21.752Z,98680.25
2022-10-17T09:18:48.407Z,98685.44
2022-10-17T09:21:15.008Z,98679.34
2022-10-17T09:23:42.510Z,98681.13
2022-10-17T09:26:09.328Z,98677.59
2022-10-17T09:28:35.962Z,98679.41
2022-10-17T09:31:02.812Z,98668.66
2022-10-17T09:33:35.415Z,98678.22
2022-10-17T09:36:09.100Z,98676.81
2022-10-17T09:38:35.686Z,98676.44
2022-10-17T09:41:02.347Z,98674.44
2022-10-17T09:43:29.035Z,98675.97
2022-10-17T09:45:55.628Z,98682.50
2022-10-17T09:48:22.258Z,98669.25
2022-10-17T09:50:57.831Z,98681.47
2022-10-17T09:53:35.022Z,98677.63
2022-10-17T09:56:01.625Z,98682.41
2022-10-17T09:58:28.244Z,98680.41
2022-10-17T10:00:54.866Z,98683.97
2022-10-17T10:03:21.528Z,98678.13
2022-10-17T10:05:48.141Z,98684.13
2022-10-17T10:08:14.783Z,98678.75
2022-10-17T10:10:41.402Z,98682.59
2022-10-17T10:13:08.891Z,98681.09
2022-10-17T10:15:35.537Z,98679.72
2022-10-17T10:18:02.124Z,98683.56
2022-10-17T10:20:28.746Z,98682.19
2022-10-17T10:22:58.178Z,98685.53
2022-10-17T10:25:24.856Z,98689.75
2022-10-17T10:27:51.448Z,98687.81
2022-10-17T10:30:18.087Z,98686.50
2022-10-17T10:32:44.670Z,98686.25
2022-10-17T10:35:11.291Z,98679.19
2022-10-17T10:37:37.905Z,98679.00
2022-10-17T10:40:04.516Z,98675.06
2022-10-17T10:42:31.115Z,98682.59
2022-10-17T10:44:57.747Z,98681.31
2022-10-17T10:47:24.335Z,98678.94
2022-10-17T10:49:50.970Z,98674.19
2022-10-17T10:52:17.629Z,98671.50
2022-10-17T10:54:44.227Z,98674.28
2022-10-17T10:57:10.843Z,98670.47
2022-10-17T10:59:37.506Z,98672.63
2022-10-17T11:02:04.087Z,98668.06
2022-10-17T11:04:30.724Z,98663.88
2022-10-17T11:06:57.495Z,98661.81
2022-10-17T11:09:24.121Z,98668.03
2022-10-17T11:11:51.398Z,98665.03
2022-10-17T11:14:18.569Z,98658.81
2022-10-17T11:16:45.307Z,98661.91
2022-10-17T11:19:12.018Z,98661.91
2022-10-17T11:21:38.726Z,98652.56
2022-10-17T11:24:06.920Z,98660.38
2022-10-17T11:26:35.088Z,98661.59
2022-10-17T11:29:01.817Z,98656.66
2022-10-17T11:31:28.664Z,98654.72
2022-10-17T11:33:55.368Z,98645.78
2022-10-17T11:36:22.013Z,98654.16
2022-10-17T11:38:48.728Z,98656.84
2022-10-17T11:41:15.476Z,98653.84
2022-10-17T11:43:42.131Z,98644.38
2022-10-17T11:46:08.913Z,98646.97
2022-10-17T11:48:35.591Z,98645.78
2022-10-17T11:53:48.979Z,98649.38
2022-10-17T11:56:15.643Z,98651.00
2022-10-17T11:58:42.318Z,98651.53
2022-10-17T12:01:09.152Z,98640.16
2022-10-17T12:03:35.980Z,98638.13
2022-10-17T12:06:02.682Z,98633.91
2022-10-17T12:08:31.278Z,98630.25
2022-10-17T12:10:58.081Z,98638.72
2022-10-17T12:13:24.976Z,98633.47
2022-10-17T12:15:51.692Z,98638.13
2022-10-17T12:18:18.484Z,98631.28
2022-10-17T12:20:45.146Z,98628.34
2022-10-17T12:23:11.895Z,98628.38
2022-10-17T12:25:38.625Z,98631.81
2022-10-17T12:30:49.789Z,98626.28
2022-10-17T12:33:16.581Z,98618.75
2022-10-17T12:35:43.285Z,98624.63
2022-10-17T12:38:09.911Z,98613.91
2022-10-17T12:40:36.578Z,98618.50
2022-10-17T12:43:03.291Z,98610.97
2022-10-17T12:45:29.971Z,98606.16
2022-10-17T12:47:56.654Z,98615.94
2022-10-17T12:50:23.738Z,98615.28
2022-10-17T12:55:22.107Z,98615.31
2022-10-17T12:57:48.762Z,98606.28
2022-10-17T13:00:15.649Z,98614.88
2022-10-17T13:02:42.469Z,98609.25
2022-10-17T13:05:09.056Z,98607.09
2022-10-17T13:07:35.722Z,98605.97
2022-10-17T13:10:02.531Z,98605.44
2022-10-17T13:12:29.401Z,98605.59
2022-10-17T13:14:56.180Z,98607.22
2022-10-17T13:17:22.951Z,98609.59
2022-10-17T13:19:49.571Z,98601.88
2022-10-17T13:22:16.356Z,98613.66
2022-10-17T13:24:43.075Z,98610.22
2022-10-17T13:27:09.712Z,98603.66
2022-10-17T13:29:36.394Z,98605.00
2022-10-17T13:32:03.051Z,98603.41
2022-10-17T13:34:29.640Z,98600.75
2022-10-17T13:36:56.379Z,98608.00
2022-10-17T13:39:38.507Z,98616.47
2022-10-17T13:42:11.366Z,98614.44
2022-10-17T13:44:42.684Z,98604.69
2022-10-17T13:47:10.013Z,98607.94
2022-10-17T13:49:36.648Z,98610.63
2022-10-17T13:52:03.280Z,98614.13
2022-10-17T13:54:29.881Z,98608.91
2022-10-17T13:56:56.579Z,98610.44
2022-10-17T13:59:23.205Z,98605.06
2022-10-17T14:01:49.825Z,98611.13
2022-10-17T14:04:20.098Z,98603.94
2022-10-17T14:06:49.467Z,98611.25
2022-10-17T14:09:17.955Z,98621.66
2022-10-17T14:11:44.581Z,98625.88
2022-10-17T14:14:11.169Z,98618.44
2022-10-17T14:16:37.789Z,98614.59
2022-10-17T14:19:04.413Z,98634.25
2022-10-17T14:21:44.374Z,98622.19
2022-10-17T14:24:11.351Z,98625.56
2022-10-17T14:26:37.967Z,98621.56
2022-10-17T14:29:04.674Z,98627.81
2022-10-17T14:31:31.453Z,98627.34
2022-10-17T14:33:58.091Z,98623.47
2022-10-17T14:36:24.716Z,98629.34
2022-10-17T14:38:51.307Z,98623.97
2022-10-17T14:44:04.534Z,98628.34
2022-10-17T14:46:31.154Z,98633.94
2022-10-17T14:48:57.773Z,98629.47
2022-10-17T14:51:24.359Z,98628.41
2022-10-17T14:53:51.016Z,98635.59
2022-10-17T14:56:17.616Z,98631.47
2022-10-17T14:58:44.199Z,98630.88
2022-10-17T15:01:10.843Z,98630.63
2022-10-17T15:03:37.514Z,98629.19
2022-10-17T15:06:04.180Z,98626.91
2022-10-17T15:08:30.819Z,98631.38
2022-10-17T15:10:57.466Z,98623.63
2022-10-17T15:13:28.815Z,98623.94
2022-10-17T15:15:56.199Z,98631.50
2022-10-17T15:18:22.809Z,98632.03
2022-10-17T15:20:55.372Z,98632.50
2022-10-17T15:23:31.372Z,98634.72
2022-10-17T15:25:57.995Z,98631.22
2022-10-17T15:28:24.678Z,98631.03
2022-10-17T15:30:51.312Z,98638.94
2022-10-17T15:33:17.948Z,98631.59
2022-10-17T15:35:44.862Z,98635.09
2022-10-17T15:38:11.501Z,98635.03
2022-10-17T15:40:38.106Z,98632.81
2022-10-17T15:43:04.750Z,98633.97
2022-10-17T15:45:31.353Z,98643.41
2022-10-17T15:47:57.997Z,98638.75
2022-10-17T15:50:24.618Z,98635.03
2022-10-17T15:52:51.251Z,98639.63
2022-10-17T15:55:17.893Z,98640.13
2022-10-17T15:57:44.507Z,98643.47
2022-10-17T16:00:16.187Z,98645.03
2022-10-17T16:02:43.208Z,98644.25
2022-10-17T16:05:09.797Z,98648.47
2022-10-17T16:07:36.393Z,98646.06
2022-10-17T16:10:03.009Z,98650.69
2022-10-17T16:12:29.604Z,98650.94
2022-10-17T16:14:56.227Z,98650.72
2022-10-17T16:17:22.863Z,98647.31
2022-10-17T16:19:49.491Z,98649.88
2022-10-17T16:22:16.103Z,98649.06
2022-10-17T16:24:42.705Z,98652.09
2022-10-17T16:27:09.384Z,98664.00
2022-10-17T16:29:36.019Z,98664.00
2022-10-17T16:32:02.617Z,98668.09
2022-10-17T16:34:29.231Z,98671.81
2022-10-17T16:36:55.828Z,98677.63
2022-10-17T16:39:22.500Z,98670.75
2022-10-17T16:41:49.179Z,98667.69
2022-10-17T16:44:15.781Z,98683.84
2022-10-17T16:46:42.390Z,98679.66
2022-10-17T16:49:09.008Z,98681.94
2022-10-17T16:51:35.611Z,98681.47
2022-10-17T16:54:02.252Z,98684.63
2022-10-17T16:56:28.842Z,98687.88
2022-10-17T16:58:55.465Z,98689.25
2022-10-17T17:01:22.086Z,98690.78
2022-10-17T17:03:48.688Z,98695.91
2022-10-17T17:06:15.312Z,98698.00
2022-10-17T17:08:42.119Z,98695.41
2022-10-17T17:11:08.779Z,98699.56
2022-10-17T17:13:35.375Z,98700.69
2022-10-17T17:16:02.018Z,98707.75
2022-10-17T17:18:28.640Z,98705.81
2022-10-17T17:20:55.324Z,98705.06
2022-10-17T17:23:21.928Z,98697.78
2022-10-17T17:25:48.555Z,98700.88
2022-10-17T17:28:15.165Z,98707.09
2022-10-17T17:30:41.780Z,98704.88
2022-10-17T17:33:08.383Z,98709.34
2022-10-17T17:35:35.000Z,98707.09
2022-10-17T17:38:01.589Z,98711.91
2022-10-17T17:40:28.209Z,98710.31
2022-10-17T17:42:54.901Z,98719.25
2022-10-17T17:45:21.554Z,98714.34
2022-10-17T17:47:48.181Z,98713.53
2022-10-17T17:50:14.776Z,98715.66
2022-10-17T17:52:41.411Z,98720.72
2022-10-17T17:55:08.003Z,98725.84
2022-10-17T17:57:34.596Z,98715.81
2022-10-17T18:00:01.212Z,98721.63
2022-10-17T18:02:27.966Z,98717.16
2022-10-17T18:04:54.802Z,98719.84
2022-10-17T18:07:21.419Z,98723.63
2022-10-17T18:09:48.121Z,98724.88
2022-10-17T18:12:14.761Z,98723.13
2022-10-17T18:14:41.352Z,98719.22
2022-10-17T18:17:07.983Z,98722.69
2022-10-17T18:19:34.579Z,98723.75
2022-10-17T18:22:01.205Z,98720.88
2022-10-17T18:24:27.847Z,98724.53
2022-10-17T18:26:54.468Z,98723.72
2022-10-17T18:29:21.087Z,98719.69
2022-10-17T18:31:47.692Z,98719.72
2022-10-17T18:34:14.313Z,98727.91
2022-10-17T18:36:40.903Z,98729.78
2022-10-17T18:39:07.526Z,98729.19
2022-10-17T18:41:34.165Z,98735.13
2022-10-17T18:44:00.775Z,98730.59
2022-10-17T18:46:27.395Z,98725.06
2022-10-17T18:48:54.011Z,98727.75
2022-10-17T18:51:20.607Z,98726.72
2022-10-17T18:53:47.251Z,98713.78
2022-10-17T18:56:13.855Z,98719.97
2022-10-17T18:58:40.521Z,98719.53
2022-10-17T19:01:07.228Z,98719.75
2022-10-17T19:03:33.854Z,98718.31
2022-10-17T19:06:01.197Z,98726.75
2022-10-17T19:08:27.885Z,98717.94
2022-10-17T19:10:54.528Z,98732.69
2022-10-17T19:13:21.738Z,98728.59
2022-10-17T19:15:48.534Z,98725.75
2022-10-17T19:18:15.130Z,98724.94
2022-10-17T19:20:41.785Z,98725.94
2022-10-17T19:23:08.389Z,98733.94
2022-10-17T19:25:35.009Z,98733.31
2022-10-17T19:28:01.620Z,98735.34
2022-10-17T19:30:28.248Z,98733.94
2022-10-17T19:32:54.888Z,98732.91
2022-10-17T19:35:21.479Z,98739.25
2022-10-17T19:37:48.088Z,98734.75
2022-10-17T19:40:14.709Z,98742.16
2022-10-17T19:42:41.313Z,98738.00
2022-10-17T19:45:08.304Z,98734.97
2022-10-17T19:47:35.004Z,98751.53
2022-10-17T19:50:01.604Z,98747.38
2022-10-17T19:52:28.563Z,98754.75
2022-10-17T19:54:55.377Z,98742.06
2022-10-17T19:57:21.962Z,98751.53
2022-10-17T19:59:50.290Z,98742.53
2022-10-17T20:02:19.074Z,98747.19
2022-10-17T20:04:54.565Z,98753.09
2022-10-17T20:07:32.287Z,98751.66
2022-10-17T20:09:58.889Z,98746.72
2022-10-17T20:12:25.511Z,98745.41
2022-10-17T20:14:52.127Z,98751.38
2022-10-17T20:17:18.722Z,98746.25
2022-10-17T20:19:45.349Z,98756.09
2022-10-17T20:22:11.948Z,98760.78
2022-10-17T20:24:38.553Z,98754.25
2022-10-17T20:27:05.156Z,98753.03
2022-10-17T20:29:31.775Z,98747.31
2022-10-17T20:31:58.422Z,98746.47
2022-10-17T20:34:25.032Z,98743.63
2022-10-17T20:36:51.659Z,98742.38
2022-10-17T20:39:18.315Z,98741.53
2022-10-17T20:41:44.896Z,98737.81
2022-10-17T20:44:11.523Z,98748.84
2022-10-17T20:46:44.428Z,98736.34
2022-10-17T20:49:11.757Z,98749.88
2022-10-17T20:51:38.343Z,98743.13
2022-10-17T20:54:04.950Z,98743.50
2022-10-17T20:56:31.545Z,98746.16
2022-10-17T20:58:58.166Z,98742.00
2022-10-17T21:01:24.784Z,98743.59
2022-10-17T21:03:51.433Z,98748.03
2022-10-17T21:06:18.061Z,98741.69
2022-10-17T21:08:44.680Z,98753.13
2022-10-17T21:11:11.289Z,98745.28
2022-10-17T21:13:37.881Z,98745.28
2022-10-17T21:16:04.530Z,98746.53
2022-10-17T21:18:31.178Z,98742.06
2022-10-17T21:20:57.841Z,98743.28
2022-10-17T21:23:24.522Z,98745.47
2022-10-17T21:25:51.130Z,98737.50
2022-10-17T21:28:17.720Z,98737.50
2022-10-17T21:30:44.338Z,98735.25
2022-10-17T21:33:10.962Z,98733.63
2022-10-17T21:35:37.574Z,98730.34
2022-10-17T21:38:04.215Z,98725.00
2022-10-17T21:40:30.828Z,98725.94
2022-10-17T21:42:57.450Z,98727.16
2022-10-17T21:45:25.789Z,98725.47
2022-10-17T21:48:11.723Z,98719.34
2022-10-17T21:50:39.385Z,98721.41
2022-10-17T21:53:06.081Z,98723.06
2022-10-17T21:55:32.711Z,98720.22
2022-10-17T21:57:59.330Z,98715.22
2022-10-17T22:00:25.912Z,98721.56
2022-10-17T22:02:52.526Z,98718.06
2022-10-17T22:05:19.120Z,98716.88
2022-10-17T22:07:45.758Z,98713.84
2022-10-17T22:10:12.343Z,98707.47
2022-10-17T22:12:38.969Z,98708.41
2022-10-17T22:15:05.837Z,98706.28
2022-10-17T22:17:32.648Z,98695.28
2022-10-17T22:19:59.484Z,98704.44
2022-10-17T22:22:26.087Z,98699.38
2022-10-17T22:24:52.682Z,98698.19
2022-10-17T22:27:19.300Z,98691.81
2022-10-17T22:29:45.903Z,98692.13
2022-10-17T22:32:12.552Z,98695.16
2022-10-17T22:34:39.169Z,98691.31
2022-10-17T22:37:05.787Z,98695.88
2022-10-17T22:39:32.372Z,98696.03
2022-10-17T22:41:59.004Z,98696.19
2022-10-17T22:44:25.599Z,98692.97
2022-10-17T22:46:52.255Z,98688.38
2022-10-17T22:49:18.908Z,98686.66
2022-10-17T22:51:45.499Z,98688.09
2022-10-17T22:54:12.129Z,98678.72
2022-10-17T22:56:38.754Z,98682.63
2022-10-17T22:59:05.367Z,98671.06
2022-10-17T23:01:31.989Z,98671.66
2022-10-17T23:03:58.647Z,98673.63
2022-10-17T23:06:25.232Z,98670.88
2022-10-17T23:08:51.875Z,98667.25
2022-10-17T23:11:18.494Z,98655.00
2022-10-17T23:13:45.105Z,98661.44
2022-10-17T23:16:11.715Z,98659.31
2022-10-17T23:18:38.313Z,98653.94
2022-10-17T23:21:04.938Z,98660.13
2022-10-17T23:23:31.535Z,98660.06
2022-10-17T23:25:58.158Z,98667.31
2022-10-17T23:28:24.820Z,98666.78
2022-10-17T23:30:51.455Z,98658.50
2022-10-17T23:33:18.082Z,98661.09
2022-10-17T23:35:44.683Z,98657.50
2022-10-17T23:38:11.287Z,98648.88
2022-10-17T23:40:37.907Z,98656.44
2022-10-17T23:43:04.503Z,98648.81
2022-10-17T23:45:35.969Z,98643.13
2022-10-17T23:48:03.608Z,98650.59
2022-10-17T23:50:30.268Z,98643.03
2022-10-17T23:52:56.849Z,98638.59
2022-10-17T23:55:23.428Z,98643.34
2022-10-17T23:57:50.062Z,98638.84
